createdAt,value
2023-04-15T00:02:24.169Z,8.38
2023-04-15T00:04:54.833Z,8.33
2023-04-15T00:07:25.294Z,8.27
2023-04-15T00:09:57.882Z,8.23
2023-04-15T00:12:28.505Z,8.19
2023-04-15T00:15:01.683Z,8.14
2023-04-15T00:17:32.405Z,8.09
2023-04-15T00:20:03.828Z,8.04
2023-04-15T00:22:34.589Z,8.04
2023-04-15T00:25:05.078Z,8.00
2023-04-15T00:27:35.593Z,7.94
2023-04-15T00:30:10.795Z,7.90
2023-04-15T00:32:42.612Z,7.87
2023-04-15T00:35:13.160Z,7.78
2023-04-15T00:37:45.953Z,7.74
2023-04-15T00:40:20.804Z,7.66
2023-04-15T00:42:51.570Z,7.58
2023-04-15T00:45:24.838Z,7.54
2023-04-15T00:47:58.702Z,7.48
2023-04-15T00:50:29.166Z,7.40
2023-04-15T00:52:59.787Z,7.38
2023-04-15T00:55:30.273Z,7.37
2023-04-15T00:58:01.172Z,7.38
2023-04-15T01:00:34.790Z,7.38
2023-04-15T01:03:05.535Z,7.37
2023-04-15T01:05:37.059Z,7.27
2023-04-15T01:08:08.024Z,7.24
2023-04-15T01:10:38.991Z,7.17
2023-04-15T01:13:09.690Z,7.12
2023-04-15T01:15:43.753Z,7.07
2023-04-15T01:18:14.831Z,7.04
2023-04-15T01:20:45.360Z,7.00
2023-04-15T01:23:17.178Z,6.97
2023-04-15T01:25:50.861Z,6.92
2023-04-15T01:28:26.161Z,6.92
2023-04-15T01:31:10.985Z,6.93
2023-04-15T01:33:42.635Z,6.88
2023-04-15T01:36:32.194Z,6.83
2023-04-15T01:39:02.889Z,6.78
2023-04-15T01:41:36.007Z,6.72
2023-04-15T01:44:08.409Z,6.68
2023-04-15T01:46:40.833Z,6.69
2023-04-15T01:49:12.800Z,6.66
2023-04-15T01:51:44.431Z,6.62
2023-04-15T01:54:17.990Z,6.59
2023-04-15T01:56:52.299Z,6.54
2023-04-15T01:59:24.065Z,6.49
2023-04-15T02:01:56.469Z,6.46
2023-04-15T02:04:28.215Z,6.30
2023-04-15T02:07:03.122Z,6.25
2023-04-15T02:09:34.528Z,6.16
2023-04-15T02:12:11.890Z,6.13
2023-04-15T02:14:43.702Z,6.07
2023-04-15T02:17:15.818Z,5.96
2023-04-15T02:19:48.298Z,5.89
2023-04-15T02:22:20.653Z,5.73
2023-04-15T02:24:52.247Z,5.57
2023-04-15T02:27:26.593Z,5.42
2023-04-15T02:29:58.333Z,5.38
2023-04-15T02:32:29.941Z,5.31
2023-04-15T02:35:07.085Z,5.32
2023-04-15T02:37:45.935Z,5.27
2023-04-15T02:40:17.925Z,5.26
2023-04-15T02:42:53.144Z,5.25
2023-04-15T02:45:27.771Z,5.27
2023-04-15T02:47:59.479Z,5.31
2023-04-15T02:50:31.953Z,5.34
2023-04-15T02:53:04.545Z,5.32
2023-04-15T02:55:36.684Z,5.29
2023-04-15T02:58:11.252Z,5.21
2023-04-15T03:00:42.951Z,5.17
2023-04-15T03:03:15.516Z,5.14
2023-04-15T03:05:48.033Z,5.19
2023-04-15T03:08:19.696Z,5.21
2023-04-15T03:10:52.655Z,5.23
2023-04-15T03:13:26.999Z,5.25
2023-04-15T03:15:59.680Z,5.28
2023-04-15T03:18:32.317Z,5.27
2023-04-15T03:21:07.563Z,5.24
2023-04-15T03:23:41.718Z,5.25
2023-04-15T03:26:13.502Z,5.24
2023-04-15T03:28:48.143Z,5.15
2023-04-15T03:31:20.867Z,5.12
2023-04-15T03:33:52.949Z,5.11
2023-04-15T03:36:24.527Z,5.10
2023-04-15T03:38:56.452Z,5.07
2023-04-15T03:41:28.608Z,5.07
2023-04-15T03:44:02.961Z,5.01
2023-04-15T03:46:34.674Z,4.96
2023-04-15T03:49:06.554Z,4.90
2023-04-15T03:51:38.184Z,4.88
2023-04-15T03:54:09.882Z,4.88
2023-04-15T03:56:41.601Z,4.84
2023-04-15T03:59:15.924Z,4.72
2023-04-15T04:01:47.652Z,4.62
2023-04-15T04:04:19.658Z,4.63
2023-04-15T04:06:51.290Z,4.63
2023-04-15T04:09:22.995Z,4.63
2023-04-15T04:11:54.686Z,4.58
2023-04-15T04:14:29.998Z,4.48
2023-04-15T04:17:01.901Z,4.45
2023-04-15T04:19:33.901Z,4.43
2023-04-15T04:22:05.655Z,4.37
2023-04-15T04:24:37.418Z,4.29
2023-04-15T04:27:09.245Z,4.28
2023-04-15T04:29:43.661Z,4.29
2023-04-15T04:32:15.830Z,4.30
2023-04-15T04:34:48.368Z,4.32
2023-04-15T04:37:20.007Z,4.30
2023-04-15T04:39:51.782Z,4.26
2023-04-15T04:42:23.361Z,4.21
2023-04-15T04:44:57.656Z,4.15
2023-04-15T04:47:30.298Z,4.13
2023-04-15T04:50:01.910Z,4.13
2023-04-15T04:52:33.523Z,4.07
2023-04-15T04:55:05.252Z,4.09
2023-04-15T04:57:37.888Z,4.02
2023-04-15T05:00:14.311Z,4.02
2023-04-15T05:02:46.284Z,3.97
2023-04-15T05:05:18.046Z,3.87
2023-04-15T05:07:50.748Z,3.88
2023-04-15T05:10:22.353Z,3.81
2023-04-15T05:12:54.055Z,3.77
2023-04-15T05:15:28.560Z,3.72
2023-04-15T05:18:00.314Z,3.70
2023-04-15T05:20:32.169Z,3.66
2023-04-15T05:23:03.829Z,3.58
2023-04-15T05:25:35.531Z,3.50
2023-04-15T05:28:07.182Z,3.47
2023-04-15T05:30:42.238Z,3.41
2023-04-15T05:33:13.979Z,3.36
2023-04-15T05:35:45.713Z,3.35
2023-04-15T05:38:17.308Z,3.36
2023-04-15T05:40:48.899Z,3.37
2023-04-15T05:43:22.730Z,3.39
2023-04-15T05:45:57.271Z,3.37
2023-04-15T05:48:29.075Z,3.34
2023-04-15T05:51:01.019Z,3.30
2023-04-15T05:53:32.879Z,3.35
2023-04-15T05:56:04.439Z,3.40
2023-04-15T05:58:36.285Z,3.44
2023-04-15T06:01:10.855Z,3.47
2023-04-15T06:03:42.816Z,3.48
2023-04-15T06:06:14.741Z,3.52
2023-04-15T06:08:46.438Z,3.61
2023-04-15T06:11:18.519Z,3.63
2023-04-15T06:13:50.280Z,3.68
2023-04-15T06:16:24.555Z,3.75
2023-04-15T06:18:56.295Z,3.79
2023-04-15T06:21:28.111Z,3.88
2023-04-15T06:23:59.840Z,3.97
2023-04-15T06:26:31.830Z,4.11
2023-04-15T06:29:04.001Z,4.19
2023-04-15T06:31:38.412Z,4.28
2023-04-15T06:34:10.069Z,4.38
2023-04-15T06:36:41.634Z,4.46
2023-04-15T06:39:13.707Z,4.54
2023-04-15T06:41:45.504Z,4.66
2023-04-15T06:44:17.396Z,4.70
2023-04-15T06:46:51.662Z,4.80
2023-04-15T06:49:23.268Z,4.85
2023-04-15T06:51:54.938Z,4.92
2023-04-15T06:54:26.744Z,4.98
2023-04-15T06:56:58.462Z,5.05
2023-04-15T06:59:30.169Z,5.10
2023-04-15T07:02:05.151Z,5.14
2023-04-15T07:04:36.593Z,5.21
2023-04-15T07:07:08.297Z,5.26
2023-04-15T07:09:39.901Z,5.27
2023-04-15T07:12:11.753Z,5.29
2023-04-15T07:14:43.580Z,5.31
2023-04-15T07:17:18.014Z,5.33
2023-04-15T07:19:49.691Z,5.36
2023-04-15T07:22:21.598Z,5.36
2023-04-15T07:24:53.163Z,5.38
2023-04-15T07:27:25.020Z,5.43
2023-04-15T07:29:56.607Z,5.45
2023-04-15T07:32:31.278Z,5.54
2023-04-15T07:35:03.906Z,5.55
2023-04-15T07:37:35.598Z,5.64
2023-04-15T07:40:09.708Z,5.72
2023-04-15T07:42:43.690Z,5.83
2023-04-15T07:45:15.691Z,5.92
2023-04-15T07:47:51.133Z,6.00
2023-04-15T07:50:23.029Z,6.06
2023-04-15T07:52:57.545Z,6.12
2023-04-15T07:55:30.842Z,6.20
2023-04-15T07:58:02.446Z,6.31
2023-04-15T08:00:34.120Z,6.49
2023-04-15T08:03:08.693Z,6.53
2023-04-15T08:05:40.451Z,6.64
2023-04-15T08:08:12.529Z,6.77
2023-04-15T08:10:44.174Z,6.93
2023-04-15T08:13:16.387Z,7.05
2023-04-15T08:15:48.158Z,7.06
2023-04-15T08:18:22.376Z,7.15
2023-04-15T08:20:53.978Z,7.37
2023-04-15T08:23:25.802Z,7.42
2023-04-15T08:25:57.852Z,7.51
2023-04-15T08:28:29.438Z,7.60
2023-04-15T08:31:01.140Z,7.74
2023-04-15T08:33:35.387Z,7.90
2023-04-15T08:36:07.890Z,8.07
2023-04-15T08:38:39.834Z,8.26
2023-04-15T08:41:24.209Z,8.40
2023-04-15T08:44:00.692Z,8.61
2023-04-15T08:46:34.944Z,8.55
2023-04-15T08:49:15.260Z,8.54
2023-04-15T08:51:47.025Z,8.62
2023-04-15T08:54:18.764Z,8.93
2023-04-15T08:56:51.597Z,8.99
2023-04-15T08:59:24.067Z,9.01
2023-04-15T09:01:56.822Z,8.97
2023-04-15T09:04:31.683Z,9.19
2023-04-15T09:07:04.947Z,9.20
2023-04-15T09:09:37.679Z,9.39
2023-04-15T09:12:11.575Z,9.44
2023-04-15T09:14:44.919Z,9.49
2023-04-15T09:17:16.880Z,9.64
2023-04-15T09:19:51.417Z,9.78
2023-04-15T09:22:24.499Z,9.77
2023-04-15T09:24:56.072Z,9.84
2023-04-15T09:27:27.844Z,9.98
2023-04-15T09:29:59.325Z,9.98
2023-04-15T09:32:31.070Z,10.08
2023-04-15T09:35:15.753Z,10.21
2023-04-15T09:37:47.641Z,10.27
2023-04-15T09:40:34.364Z,10.45
2023-04-15T09:43:07.285Z,10.45
2023-04-15T09:45:41.418Z,10.50
2023-04-15T09:48:21.809Z,10.61
2023-04-15T09:50:57.982Z,10.66
2023-04-15T09:53:31.714Z,10.74
2023-04-15T09:56:04.447Z,10.78
2023-04-15T09:58:39.018Z,10.95
2023-04-15T10:01:11.820Z,10.99
2023-04-15T10:03:45.468Z,11.11
2023-04-15T10:06:20.156Z,11.20
2023-04-15T10:08:52.209Z,11.27
2023-04-15T10:11:25.606Z,11.32
2023-04-15T10:14:00.089Z,11.36
2023-04-15T10:16:35.844Z,11.45
2023-04-15T10:19:09.690Z,11.59
2023-04-15T10:21:45.281Z,11.56
2023-04-15T10:24:19.493Z,11.74
2023-04-15T10:26:51.592Z,11.89
2023-04-15T10:29:23.961Z,11.86
2023-04-15T10:31:56.607Z,12.02
2023-04-15T10:34:29.019Z,11.97
2023-04-15T10:37:06.874Z,12.06
2023-04-15T10:39:46.819Z,12.18
2023-04-15T10:42:20.325Z,12.18
2023-04-15T10:44:54.628Z,12.24
2023-04-15T10:47:26.280Z,12.29
2023-04-15T10:50:02.657Z,12.33
2023-04-15T10:52:37.333Z,12.38
2023-04-15T10:55:18.188Z,12.49
2023-04-15T10:57:49.875Z,12.55
2023-04-15T11:00:24.580Z,12.58
2023-04-15T11:02:58.661Z,12.78
2023-04-15T11:05:56.202Z,12.81
2023-04-15T11:09:06.086Z,12.72
2023-04-15T11:12:09.044Z,12.90
2023-04-15T11:14:44.572Z,13.01
2023-04-15T11:17:16.263Z,13.19
2023-04-15T11:19:47.967Z,13.14
2023-04-15T11:22:19.700Z,13.31
2023-04-15T11:24:54.047Z,13.35
2023-04-15T11:27:26.403Z,13.29
2023-04-15T11:29:58.075Z,13.32
2023-04-15T11:32:32.654Z,13.26
2023-04-15T11:35:04.527Z,13.29
2023-04-15T11:37:36.277Z,13.14
2023-04-15T11:40:13.024Z,13.07
2023-04-15T11:42:49.448Z,13.00
2023-04-15T11:45:21.844Z,13.06
2023-04-15T11:47:53.575Z,12.97
2023-04-15T11:50:26.798Z,12.97
2023-04-15T11:52:58.355Z,12.96
2023-04-15T11:55:31.936Z,12.93
2023-04-15T11:58:16.818Z,13.07
2023-04-15T12:00:52.749Z,13.24
2023-04-15T12:03:27.790Z,13.22
2023-04-15T12:06:19.673Z,13.39
2023-04-15T12:09:07.031Z,13.31
2023-04-15T12:11:53.107Z,13.23
2023-04-15T12:14:28.654Z,13.26
2023-04-15T12:17:02.297Z,13.14
2023-04-15T12:19:35.106Z,13.06
2023-04-15T12:22:07.974Z,12.98
2023-04-15T12:24:41.245Z,12.90
2023-04-15T12:27:19.577Z,12.89
2023-04-15T12:29:50.033Z,12.77
2023-04-15T12:32:22.193Z,12.36
2023-04-15T12:34:55.467Z,12.15
2023-04-15T12:37:26.460Z,11.83
2023-04-15T12:39:56.920Z,11.46
2023-04-15T12:42:30.340Z,11.35
2023-04-15T12:45:00.657Z,11.23
2023-04-15T12:47:31.194Z,11.06
2023-04-15T12:50:01.680Z,11.02
2023-04-15T12:52:32.071Z,11.06
2023-04-15T12:55:02.553Z,11.10
2023-04-15T12:57:35.572Z,11.18
2023-04-15T13:00:08.283Z,11.31
2023-04-15T13:02:38.882Z,11.48
2023-04-15T13:05:10.729Z,11.49
2023-04-15T13:07:41.169Z,11.59
2023-04-15T13:10:13.124Z,11.59
2023-04-15T13:12:47.024Z,11.62
2023-04-15T13:15:20.814Z,11.71
2023-04-15T13:17:51.375Z,11.81
2023-04-15T13:20:22.384Z,11.83
2023-04-15T13:22:52.739Z,11.86
2023-04-15T13:25:23.595Z,11.88
2023-04-15T13:27:57.873Z,11.97
2023-04-15T13:30:28.301Z,12.06
2023-04-15T13:32:58.823Z,12.09
2023-04-15T13:35:29.284Z,12.09
2023-04-15T13:37:59.797Z,12.26
2023-04-15T13:40:30.580Z,12.23
2023-04-15T13:43:04.435Z,12.27
2023-04-15T13:45:35.241Z,12.33
2023-04-15T13:48:05.750Z,12.40
2023-04-15T13:50:36.302Z,12.41
2023-04-15T13:53:06.689Z,12.35
2023-04-15T13:55:39.122Z,12.26
2023-04-15T13:58:12.329Z,12.27
2023-04-15T14:00:42.685Z,12.25
2023-04-15T14:03:13.188Z,12.13
2023-04-15T14:05:43.721Z,12.16
2023-04-15T14:08:14.063Z,12.11
2023-04-15T14:10:48.599Z,12.09
2023-04-15T14:13:21.962Z,12.10
2023-04-15T14:15:52.357Z,12.04
2023-04-15T14:18:22.996Z,12.06
2023-04-15T14:20:53.528Z,12.12
2023-04-15T14:23:24.041Z,12.03
2023-04-15T14:25:54.635Z,12.04
2023-04-15T14:28:27.966Z,11.96
2023-04-15T14:30:58.433Z,11.93
2023-04-15T14:33:29.010Z,11.98
2023-04-15T14:36:00.012Z,11.95
2023-04-15T14:38:30.722Z,11.88
2023-04-15T14:41:02.153Z,11.90
2023-04-15T14:43:35.255Z,11.92
2023-04-15T14:46:05.967Z,11.80
2023-04-15T14:48:36.513Z,11.67
2023-04-15T14:51:06.921Z,11.62
2023-04-15T14:53:37.327Z,11.62
2023-04-15T14:56:08.589Z,11.54
2023-04-15T14:58:41.547Z,11.54
2023-04-15T15:01:12.936Z,11.51
2023-04-15T15:03:43.827Z,11.50
2023-04-15T15:06:14.397Z,11.49
2023-04-15T15:08:44.744Z,11.45
2023-04-15T15:11:15.149Z,11.37
2023-04-15T15:13:48.113Z,11.37
2023-04-15T15:16:18.592Z,11.25
2023-04-15T15:18:48.978Z,11.15
2023-04-15T15:21:19.411Z,11.10
2023-04-15T15:23:49.900Z,11.12
2023-04-15T15:26:20.556Z,11.09
2023-04-15T15:28:53.703Z,11.07
2023-04-15T15:31:24.087Z,11.07
2023-04-15T15:33:54.496Z,11.09
2023-04-15T15:36:24.878Z,11.06
2023-04-15T15:38:55.625Z,11.04
2023-04-15T15:41:26.209Z,11.04
2023-04-15T15:43:59.280Z,10.98
2023-04-15T15:46:31.578Z,11.02
2023-04-15T15:49:02.594Z,11.04
2023-04-15T15:51:33.415Z,11.07
2023-04-15T15:54:03.989Z,10.98
2023-04-15T15:56:35.195Z,11.00
2023-04-15T15:59:08.267Z,10.90
2023-04-15T16:01:38.801Z,10.80
2023-04-15T16:04:10.504Z,10.78
2023-04-15T16:06:41.379Z,10.72
2023-04-15T16:09:11.833Z,10.60
2023-04-15T16:11:42.637Z,10.53
2023-04-15T16:14:15.815Z,10.42
2023-04-15T16:16:46.283Z,10.36
2023-04-15T16:19:16.640Z,10.36
2023-04-15T16:21:47.488Z,10.32
2023-04-15T16:24:17.975Z,10.38
2023-04-15T16:26:48.504Z,10.32
2023-04-15T16:29:21.443Z,10.33
2023-04-15T16:31:54.985Z,10.33
2023-04-15T16:34:25.518Z,10.32
2023-04-15T16:36:56.308Z,10.30
2023-04-15T16:39:27.357Z,10.29
2023-04-15T16:41:58.104Z,10.26
2023-04-15T16:44:31.199Z,10.26
2023-04-15T16:47:02.398Z,10.19
2023-04-15T16:49:35.049Z,10.17
2023-04-15T16:52:05.453Z,10.12
2023-04-15T16:54:40.757Z,10.11
2023-04-15T16:57:11.228Z,10.15
2023-04-15T16:59:44.170Z,10.08
2023-04-15T17:02:17.682Z,10.14
2023-04-15T17:04:48.151Z,10.12
2023-04-15T17:07:18.535Z,10.17
2023-04-15T17:09:48.894Z,10.04
2023-04-15T17:12:19.349Z,10.04
2023-04-15T17:14:52.505Z,10.00
2023-04-15T17:17:23.082Z,9.98
2023-04-15T17:19:53.697Z,9.94
2023-04-15T17:22:24.260Z,9.83
2023-04-15T17:24:54.914Z,9.73
2023-04-15T17:27:27.734Z,9.69
2023-04-15T17:30:01.512Z,9.61
2023-04-15T17:32:51.960Z,9.57
2023-04-15T17:35:42.684Z,9.57
2023-04-15T17:38:33.173Z,9.50
2023-04-15T17:41:23.525Z,9.50
2023-04-15T17:44:13.781Z,9.41
2023-04-15T17:47:06.848Z,9.45
2023-04-15T17:49:57.265Z,9.47
2023-04-15T17:52:48.558Z,9.44
2023-04-15T17:55:39.744Z,9.40
2023-04-15T17:58:30.285Z,9.32
2023-04-15T18:01:22.509Z,9.30
2023-04-15T18:04:16.001Z,9.24
2023-04-15T18:07:07.629Z,9.20
2023-04-15T18:10:00.640Z,9.14
2023-04-15T18:12:51.191Z,9.06
2023-04-15T18:15:41.637Z,9.07
2023-04-15T18:18:32.105Z,8.98
2023-04-15T18:21:06.468Z,9.02
2023-04-15T18:23:37.027Z,9.06
2023-04-15T18:26:07.512Z,9.11
2023-04-15T18:28:38.081Z,9.05
2023-04-15T18:31:09.001Z,8.97
2023-04-15T18:33:39.555Z,8.99
2023-04-15T18:36:13.201Z,8.93
2023-04-15T18:38:43.926Z,8.87
2023-04-15T18:41:14.287Z,8.82
2023-04-15T18:43:44.685Z,8.74
2023-04-15T18:46:15.151Z,8.62
2023-04-15T18:48:45.710Z,8.64
2023-04-15T18:51:18.666Z,8.66
2023-04-15T18:53:49.323Z,8.58
2023-04-15T18:56:19.738Z,8.57
2023-04-15T18:59:27.855Z,8.52
2023-04-15T19:01:40.861Z,8.41
2023-04-15T19:04:11.825Z,8.39
2023-04-15T19:06:44.863Z,8.36
2023-04-15T19:09:15.472Z,8.30
2023-04-15T19:11:46.483Z,8.25
2023-04-15T19:14:16.989Z,8.25
2023-04-15T19:16:47.502Z,8.15
2023-04-15T19:19:18.094Z,8.14
2023-04-15T19:21:51.155Z,8.10
2023-04-15T19:24:22.486Z,8.07
2023-04-15T19:26:53.322Z,8.08
2023-04-15T19:29:23.722Z,7.96
2023-04-15T19:31:54.464Z,7.92
2023-04-15T19:34:25.191Z,7.92
2023-04-15T19:36:59.334Z,7.93
2023-04-15T19:39:30.062Z,7.88
2023-04-15T19:42:00.448Z,7.90
2023-04-15T19:44:30.783Z,7.89
2023-04-15T19:47:01.146Z,7.96
2023-04-15T19:49:31.571Z,7.96
2023-04-15T19:52:04.530Z,7.89
2023-04-15T19:54:35.323Z,7.83
2023-04-15T19:57:05.690Z,7.84
2023-04-15T19:59:36.134Z,7.85
2023-04-15T20:02:06.942Z,7.85
2023-04-15T20:04:37.484Z,7.88
2023-04-15T20:07:10.769Z,7.85
2023-04-15T20:09:41.118Z,7.85
2023-04-15T20:12:50.271Z,7.85
2023-04-15T20:15:01.857Z,7.83
2023-04-15T20:17:35.910Z,7.79
2023-04-15T20:20:08.236Z,7.75
2023-04-15T20:22:41.281Z,7.73
2023-04-15T20:25:12.748Z,7.72
2023-04-15T20:27:43.241Z,7.72
2023-04-15T20:30:14.601Z,7.71
2023-04-15T20:32:45.155Z,7.75
2023-04-15T20:35:15.714Z,7.73
2023-04-15T20:37:49.474Z,7.74
2023-04-15T20:40:20.383Z,7.72
2023-04-15T20:42:51.113Z,7.64
2023-04-15T20:45:21.657Z,7.57
2023-04-15T20:47:52.030Z,7.56
2023-04-15T20:50:22.571Z,7.53
2023-04-15T20:52:55.574Z,7.52
2023-04-15T20:55:26.292Z,7.53
2023-04-15T20:57:57.110Z,7.52
2023-04-15T21:00:27.607Z,7.44
2023-04-15T21:02:58.266Z,7.51
2023-04-15T21:05:28.890Z,7.44
2023-04-15T21:08:01.806Z,7.40
2023-04-15T21:10:35.453Z,7.39
2023-04-15T21:13:06.922Z,7.33
2023-04-15T21:15:38.386Z,7.29
2023-04-15T21:18:08.974Z,7.30
2023-04-15T21:20:39.482Z,7.28
2023-04-15T21:23:13.123Z,7.30
2023-04-15T21:25:43.588Z,7.33
2023-04-15T21:28:13.967Z,7.34
2023-04-15T21:30:45.905Z,7.32
2023-04-15T21:33:16.530Z,7.31
2023-04-15T21:35:46.867Z,7.35
2023-04-15T21:38:21.322Z,7.35
2023-04-15T21:40:53.580Z,7.34
2023-04-15T21:43:25.825Z,7.34
2023-04-15T21:46:21.125Z,7.34
2023-04-15T21:48:48.957Z,7.36
2023-04-15T21:51:19.517Z,7.33
2023-04-15T21:53:52.827Z,7.31
2023-04-15T21:56:24.493Z,7.32
2023-04-15T21:58:59.325Z,7.36
2023-04-15T22:01:30.062Z,7.34
2023-04-15T22:04:00.898Z,7.30
2023-04-15T22:06:31.885Z,7.26
2023-04-15T22:09:05.197Z,7.28
2023-04-15T22:11:35.961Z,7.30
2023-04-15T22:14:06.679Z,7.30
2023-04-15T22:16:37.133Z,7.29
2023-04-15T22:19:07.951Z,7.28
2023-04-15T22:21:38.711Z,7.26
2023-04-15T22:24:31.611Z,7.30
2023-04-15T22:27:02.381Z,7.28
2023-04-15T22:29:33.103Z,7.24
2023-04-15T22:32:03.732Z,7.27
2023-04-15T22:34:34.189Z,7.26
2023-04-15T22:37:04.587Z,7.25
2023-04-15T22:39:37.715Z,7.26
2023-04-15T22:42:08.079Z,7.25
2023-04-15T22:44:38.543Z,7.24
2023-04-15T22:47:09.120Z,7.24
2023-04-15T22:49:39.913Z,7.28
2023-04-15T22:52:12.432Z,7.25
2023-04-15T22:54:53.510Z,7.23
2023-04-15T22:57:23.975Z,7.24
2023-04-15T22:59:54.322Z,7.20
2023-04-15T23:02:24.940Z,7.22
2023-04-15T23:04:55.588Z,7.19
2023-04-15T23:07:26.144Z,7.22
2023-04-15T23:10:01.229Z,7.17
2023-04-15T23:12:31.679Z,7.20
2023-04-15T23:15:02.250Z,7.19
2023-04-15T23:17:32.710Z,7.15
2023-04-15T23:20:03.235Z,7.17
2023-04-15T23:22:37.570Z,7.19
2023-04-15T23:25:12.250Z,7.21
2023-04-15T23:27:42.606Z,7.21
2023-04-15T23:30:13.578Z,7.23
2023-04-15T23:32:44.085Z,7.18
2023-04-15T23:35:14.592Z,7.20
2023-04-15T23:37:44.936Z,7.18
2023-04-15T23:40:18.553Z,7.18
2023-04-15T23:42:49.085Z,7.17
2023-04-15T23:45:19.545Z,7.19
2023-04-15T23:47:49.880Z,7.20
2023-04-15T23:50:20.655Z,7.20
2023-04-15T23:52:51.019Z,7.16
2023-04-15T23:55:24.371Z,7.15
2023-04-15T23:57:54.669Z,7.13
